sensor_id;sensor_type;location;lat;lon;timestamp;temperature;humidity
34646;DHT22;20857;47.808;12.482;2023-12-20T00:00:56;2.30;99.90
34646;DHT22;20857;47.808;12.482;2023-12-20T00:03:22;2.30;99.90
34646;DHT22;20857;47.808;12.482;2023-12-20T00:05:47;2.20;99.90
34646;DHT22;20857;47.808;12.482;2023-12-20T00:08:13;2.20;99.90
34646;DHT22;20857;47.808;12.482;2023-12-20T00:10:39;2.20;99.90
34646;DHT22;20857;47.808;12.482;2023-12-20T00:13:04;2.20;99.90
34646;DHT22;20857;47.808;12.482;2023-12-20T00:15:30;2.10;99.90
34646;DHT22;20857;47.808;12.482;2023-12-20T00:17:55;2.10;99.90
34646;DHT22;20857;47.808;12.482;2023-12-20T00:20:21;2.10;99.90
34646;DHT22;20857;47.808;12.482;2023-12-20T00:22:46;2.00;99.90
34646;DHT22;20857;47.808;12.482;2023-12-20T00:25:12;2.00;99.90
34646;DHT22;20857;47.808;12.482;2023-12-20T00:27:38;2.00;99.90
34646;DHT22;20857;47.808;12.482;2023-12-20T00:30:04;2.00;99.90
34646;DHT22;20857;47.808;12.482;2023-12-20T00:32:29;2.00;99.90
34646;DHT22;20857;47.808;12.482;2023-12-20T00:34:55;1.90;99.90
34646;DHT22;20857;47.808;12.482;2023-12-20T00:37:21;1.90;99.90
34646;DHT22;20857;47.808;12.482;2023-12-20T00:39:46;1.90;99.90
34646;DHT22;20857;47.808;12.482;2023-12-20T00:42:12;2.00;99.90
34646;DHT22;20857;47.808;12.482;2023-12-20T00:44:37;2.10;99.90
34646;DHT22;20857;47.808;12.482;2023-12-20T00:47:03;2.30;99.90
34646;DHT22;20857;47.808;12.482;2023-12-20T00:49:28;2.40;99.90
34646;DHT22;20857;47.808;12.482;2023-12-20T00:51:54;2.50;99.90
34646;DHT22;20857;47.808;12.482;2023-12-20T00:54:20;2.60;99.90
34646;DHT22;20857;47.808;12.482;2023-12-20T00:56:45;2.60;99.90
34646;DHT22;20857;47.808;12.482;2023-12-20T00:59:11;2.60;99.90
34646;DHT22;20857;47.808;12.482;2023-12-20T01:01:36;2.60;99.90
34646;DHT22;20857;47.808;12.482;2023-12-20T01:04:02;2.60;99.90
34646;DHT22;20857;47.808;12.482;2023-12-20T01:06:27;2.70;99.90
34646;DHT22;20857;47.808;12.482;2023-12-20T01:08:53;2.70;99.90
34646;DHT22;20857;47.808;12.482;2023-12-20T01:11:19;2.80;99.90
34646;DHT22;20857;47.808;12.482;2023-12-20T01:13:44;2.80;99.90
34646;DHT22;20857;47.808;12.482;2023-12-20T01:16:11;2.80;99.90
34646;DHT22;20857;47.808;12.482;2023-12-20T01:18:37;2.80;99.90
34646;DHT22;20857;47.808;12.482;2023-12-20T01:21:04;3.00;99.90
34646;DHT22;20857;47.808;12.482;2023-12-20T01:23:30;3.00;99.90
34646;DHT22;20857;47.808;12.482;2023-12-20T01:25:56;3.10;99.90
34646;DHT22;20857;47.808;12.482;2023-12-20T01:28:22;3.20;99.90
34646;DHT22;20857;47.808;12.482;2023-12-20T01:30:47;3.20;99.90
34646;DHT22;20857;47.808;12.482;2023-12-20T01:33:13;3.20;99.90
34646;DHT22;20857;47.808;12.482;2023-12-20T01:35:39;3.30;99.90
34646;DHT22;20857;47.808;12.482;2023-12-20T01:38:04;3.30;99.90
34646;DHT22;20857;47.808;12.482;2023-12-20T01:40:31;3.30;99.90
34646;DHT22;20857;47.808;12.482;2023-12-20T01:43:01;3.40;99.90
34646;DHT22;20857;47.808;12.482;2023-12-20T01:45:27;3.20;99.90
34646;DHT22;20857;47.808;12.482;2023-12-20T01:47:57;3.20;99.90
34646;DHT22;20857;47.808;12.482;2023-12-20T01:50:23;3.10;99.90
34646;DHT22;20857;47.808;12.482;2023-12-20T01:52:49;3.10;99.90
34646;DHT22;20857;47.808;12.482;2023-12-20T01:55:21;3.20;99.90
34646;DHT22;20857;47.808;12.482;2023-12-20T01:57:47;3.20;99.90
34646;DHT22;20857;47.808;12.482;2023-12-20T02:00:13;3.20;99.90
34646;DHT22;20857;47.808;12.482;2023-12-20T02:02:40;3.10;99.90
34646;DHT22;20857;47.808;12.482;2023-12-20T02:05:07;3.10;99.90
34646;DHT22;20857;47.808;12.482;2023-12-20T02:07:32;3.10;99.90
34646;DHT22;20857;47.808;12.482;2023-12-20T02:10:00;3.20;99.90
34646;DHT22;20857;47.808;12.482;2023-12-20T02:12:26;3.10;99.90
34646;DHT22;20857;47.808;12.482;2023-12-20T02:14:52;3.20;99.90
34646;DHT22;20857;47.808;12.482;2023-12-20T02:17:19;3.20;99.90
34646;DHT22;20857;47.808;12.482;2023-12-20T02:19:45;3.20;99.90
34646;DHT22;20857;47.808;12.482;2023-12-20T02:22:11;3.10;99.90
34646;DHT22;20857;47.808;12.482;2023-12-20T02:24:37;3.00;99.90
34646;DHT22;20857;47.808;12.482;2023-12-20T02:27:03;3.10;99.90
34646;DHT22;20857;47.808;12.482;2023-12-20T02:29:30;3.10;99.90
34646;DHT22;20857;47.808;12.482;2023-12-20T02:31:56;3.10;99.90
34646;DHT22;20857;47.808;12.482;2023-12-20T02:34:22;3.20;99.90
34646;DHT22;20857;47.808;12.482;2023-12-20T02:36:47;3.20;99.90
34646;DHT22;20857;47.808;12.482;2023-12-20T02:39:13;3.40;99.90
34646;DHT22;20857;47.808;12.482;2023-12-20T02:41:39;3.30;99.90
34646;DHT22;20857;47.808;12.482;2023-12-20T02:44:05;3.30;99.90
34646;DHT22;20857;47.808;12.482;2023-12-20T02:46:30;3.40;99.90
34646;DHT22;20857;47.808;12.482;2023-12-20T02:48:56;3.50;99.90
34646;DHT22;20857;47.808;12.482;2023-12-20T02:51:21;3.40;99.90
34646;DHT22;20857;47.808;12.482;2023-12-20T02:53:47;3.40;99.90
34646;DHT22;20857;47.808;12.482;2023-12-20T02:56:12;3.40;99.90
34646;DHT22;20857;47.808;12.482;2023-12-20T02:58:40;3.50;99.90
34646;DHT22;20857;47.808;12.482;2023-12-20T03:01:05;3.50;99.90
34646;DHT22;20857;47.808;12.482;2023-12-20T03:03:31;3.60;99.90
34646;DHT22;20857;47.808;12.482;2023-12-20T03:05:57;3.70;99.90
34646;DHT22;20857;47.808;12.482;2023-12-20T03:08:23;3.70;99.90
34646;DHT22;20857;47.808;12.482;2023-12-20T03:10:48;3.60;99.90
34646;DHT22;20857;47.808;12.482;2023-12-20T03:13:14;3.60;99.90
34646;DHT22;20857;47.808;12.482;2023-12-20T03:15:40;3.60;99.90
34646;DHT22;20857;47.808;12.482;2023-12-20T03:18:05;3.70;99.90
34646;DHT22;20857;47.808;12.482;2023-12-20T03:20:31;3.70;99.90
34646;DHT22;20857;47.808;12.482;2023-12-20T03:23:00;3.70;99.90
34646;DHT22;20857;47.808;12.482;2023-12-20T03:25:26;3.70;99.90
34646;DHT22;20857;47.808;12.482;2023-12-20T03:27:52;3.70;99.90
34646;DHT22;20857;47.808;12.482;2023-12-20T03:30:18;3.60;99.90
34646;DHT22;20857;47.808;12.482;2023-12-20T03:32:44;3.60;99.90
34646;DHT22;20857;47.808;12.482;2023-12-20T03:35:10;3.60;99.90
34646;DHT22;20857;47.808;12.482;2023-12-20T03:37:36;3.50;99.90
34646;DHT22;20857;47.808;12.482;2023-12-20T03:40:02;3.50;99.90
34646;DHT22;20857;47.808;12.482;2023-12-20T03:42:27;3.50;99.90
34646;DHT22;20857;47.808;12.482;2023-12-20T03:44:53;3.60;99.90
34646;DHT22;20857;47.808;12.482;2023-12-20T03:47:18;3.70;99.90
34646;DHT22;20857;47.808;12.482;2023-12-20T03:49:44;3.70;99.90
34646;DHT22;20857;47.808;12.482;2023-12-20T03:52:09;3.70;99.90
34646;DHT22;20857;47.808;12.482;2023-12-20T03:54:35;3.80;99.90
34646;DHT22;20857;47.808;12.482;2023-12-20T03:57:01;3.90;99.90
34646;DHT22;20857;47.808;12.482;2023-12-20T03:59:26;4.10;99.90
34646;DHT22;20857;47.808;12.482;2023-12-20T04:01:52;4.10;99.90
34646;DHT22;20857;47.808;12.482;2023-12-20T04:04:18;4.20;99.90
34646;DHT22;20857;47.808;12.482;2023-12-20T04:06:44;4.30;99.90
34646;DHT22;20857;47.808;12.482;2023-12-20T04:09:10;4.30;99.90
34646;DHT22;20857;47.808;12.482;2023-12-20T04:11:36;4.40;99.90
34646;DHT22;20857;47.808;12.482;2023-12-20T04:14:02;4.30;99.90
34646;DHT22;20857;47.808;12.482;2023-12-20T04:16:27;4.30;99.90
34646;DHT22;20857;47.808;12.482;2023-12-20T04:18:53;4.30;99.90
34646;DHT22;20857;47.808;12.482;2023-12-20T04:21:18;4.40;99.90
34646;DHT22;20857;47.808;12.482;2023-12-20T04:23:44;4.50;99.90
34646;DHT22;20857;47.808;12.482;2023-12-20T04:26:10;4.60;99.90
34646;DHT22;20857;47.808;12.482;2023-12-20T04:28:35;4.60;99.90
34646;DHT22;20857;47.808;12.482;2023-12-20T04:31:01;4.70;99.90
34646;DHT22;20857;47.808;12.482;2023-12-20T04:33:27;4.70;99.90
34646;DHT22;20857;47.808;12.482;2023-12-20T04:35:52;4.70;99.90
34646;DHT22;20857;47.808;12.482;2023-12-20T04:38:18;4.80;99.90
34646;DHT22;20857;47.808;12.482;2023-12-20T04:40:43;4.80;99.90
34646;DHT22;20857;47.808;12.482;2023-12-20T04:43:09;4.80;99.90
34646;DHT22;20857;47.808;12.482;2023-12-20T04:45:35;4.90;99.90
34646;DHT22;20857;47.808;12.482;2023-12-20T04:48:01;5.00;99.90
34646;DHT22;20857;47.808;12.482;2023-12-20T04:50:27;5.20;99.90
34646;DHT22;20857;47.808;12.482;2023-12-20T04:52:53;6.10;99.90
34646;DHT22;20857;47.808;12.482;2023-12-20T04:55:18;6.80;99.90
34646;DHT22;20857;47.808;12.482;2023-12-20T04:57:44;7.20;99.90
34646;DHT22;20857;47.808;12.482;2023-12-20T05:00:10;7.50;99.90
34646;DHT22;20857;47.808;12.482;2023-12-20T05:02:36;7.60;99.90
34646;DHT22;20857;47.808;12.482;2023-12-20T05:05:02;7.40;99.90
34646;DHT22;20857;47.808;12.482;2023-12-20T05:07:27;7.40;99.90
34646;DHT22;20857;47.808;12.482;2023-12-20T05:09:53;7.40;99.90
34646;DHT22;20857;47.808;12.482;2023-12-20T05:12:19;7.30;99.90
34646;DHT22;20857;47.808;12.482;2023-12-20T05:14:45;7.10;99.90
34646;DHT22;20857;47.808;12.482;2023-12-20T05:17:11;6.80;99.90
34646;DHT22;20857;47.808;12.482;2023-12-20T05:19:37;6.50;99.90
34646;DHT22;20857;47.808;12.482;2023-12-20T05:22:02;6.30;99.90
34646;DHT22;20857;47.808;12.482;2023-12-20T05:24:28;6.40;99.90
34646;DHT22;20857;47.808;12.482;2023-12-20T05:26:54;6.40;99.90
34646;DHT22;20857;47.808;12.482;2023-12-20T05:29:20;6.20;99.90
34646;DHT22;20857;47.808;12.482;2023-12-20T05:31:45;6.10;99.90
34646;DHT22;20857;47.808;12.482;2023-12-20T05:34:11;6.00;99.90
34646;DHT22;20857;47.808;12.482;2023-12-20T05:36:37;5.90;99.90
34646;DHT22;20857;47.808;12.482;2023-12-20T05:39:04;5.90;99.90
34646;DHT22;20857;47.808;12.482;2023-12-20T05:41:30;5.90;99.90
34646;DHT22;20857;47.808;12.482;2023-12-20T05:43:56;6.00;99.90
34646;DHT22;20857;47.808;12.482;2023-12-20T05:46:23;6.10;99.90
34646;DHT22;20857;47.808;12.482;2023-12-20T05:48:49;6.10;99.90
34646;DHT22;20857;47.808;12.482;2023-12-20T05:51:15;6.40;99.90
34646;DHT22;20857;47.808;12.482;2023-12-20T05:53:40;6.50;99.90
34646;DHT22;20857;47.808;12.482;2023-12-20T05:56:06;6.60;99.90
34646;DHT22;20857;47.808;12.482;2023-12-20T05:58:33;6.70;99.90
34646;DHT22;20857;47.808;12.482;2023-12-20T06:00:59;6.60;99.90
34646;DHT22;20857;47.808;12.482;2023-12-20T06:03:24;6.70;99.90
34646;DHT22;20857;47.808;12.482;2023-12-20T06:05:50;6.80;99.90
34646;DHT22;20857;47.808;12.482;2023-12-20T06:08:16;6.90;99.90
34646;DHT22;20857;47.808;12.482;2023-12-20T06:10:41;6.90;99.90
34646;DHT22;20857;47.808;12.482;2023-12-20T06:13:07;7.00;99.90
34646;DHT22;20857;47.808;12.482;2023-12-20T06:15:33;7.00;99.90
34646;DHT22;20857;47.808;12.482;2023-12-20T06:17:58;6.90;99.90
34646;DHT22;20857;47.808;12.482;2023-12-20T06:20:24;6.70;99.90
34646;DHT22;20857;47.808;12.482;2023-12-20T06:22:50;6.70;99.90
34646;DHT22;20857;47.808;12.482;2023-12-20T06:25:16;6.50;99.90
34646;DHT22;20857;47.808;12.482;2023-12-20T06:27:42;6.30;99.90
34646;DHT22;20857;47.808;12.482;2023-12-20T06:30:08;6.20;99.90
34646;DHT22;20857;47.808;12.482;2023-12-20T06:32:36;6.10;99.90
34646;DHT22;20857;47.808;12.482;2023-12-20T06:35:03;6.00;99.90
34646;DHT22;20857;47.808;12.482;2023-12-20T06:37:30;5.90;99.90
34646;DHT22;20857;47.808;12.482;2023-12-20T06:39:55;5.90;99.90
34646;DHT22;20857;47.808;12.482;2023-12-20T06:42:22;5.70;99.90
34646;DHT22;20857;47.808;12.482;2023-12-20T06:44:48;5.80;99.90
34646;DHT22;20857;47.808;12.482;2023-12-20T06:47:13;5.70;99.90
34646;DHT22;20857;47.808;12.482;2023-12-20T06:49:40;5.60;99.90
34646;DHT22;20857;47.808;12.482;2023-12-20T06:52:05;5.60;99.90
34646;DHT22;20857;47.808;12.482;2023-12-20T06:54:31;5.50;99.90
34646;DHT22;20857;47.808;12.482;2023-12-20T06:56:57;5.50;99.90
34646;DHT22;20857;47.808;12.482;2023-12-20T06:59:22;5.60;99.90
34646;DHT22;20857;47.808;12.482;2023-12-20T07:01:48;5.50;99.90
34646;DHT22;20857;47.808;12.482;2023-12-20T07:04:15;5.40;99.90
34646;DHT22;20857;47.808;12.482;2023-12-20T07:06:40;5.50;99.90
34646;DHT22;20857;47.808;12.482;2023-12-20T07:09:06;5.50;99.90
34646;DHT22;20857;47.808;12.482;2023-12-20T07:11:32;5.50;99.90
34646;DHT22;20857;47.808;12.482;2023-12-20T07:13:57;5.50;99.90
34646;DHT22;20857;47.808;12.482;2023-12-20T07:16:23;5.50;99.90
34646;DHT22;20857;47.808;12.482;2023-12-20T07:18:48;5.50;99.90
34646;DHT22;20857;47.808;12.482;2023-12-20T07:21:14;5.50;99.90
34646;DHT22;20857;47.808;12.482;2023-12-20T07:23:39;5.40;99.90
34646;DHT22;20857;47.808;12.482;2023-12-20T07:26:05;5.40;99.90
34646;DHT22;20857;47.808;12.482;2023-12-20T07:28:31;5.40;99.90
34646;DHT22;20857;47.808;12.482;2023-12-20T07:31:00;5.30;99.90
34646;DHT22;20857;47.808;12.482;2023-12-20T07:33:25;5.20;99.90
34646;DHT22;20857;47.808;12.482;2023-12-20T07:35:51;5.20;99.90
34646;DHT22;20857;47.808;12.482;2023-12-20T07:38:17;5.10;99.90
34646;DHT22;20857;47.808;12.482;2023-12-20T07:40:42;5.10;99.90
34646;DHT22;20857;47.808;12.482;2023-12-20T07:43:08;5.10;99.90
34646;DHT22;20857;47.808;12.482;2023-12-20T07:45:34;5.60;99.90
34646;DHT22;20857;47.808;12.482;2023-12-20T07:48:00;5.10;99.90
34646;DHT22;20857;47.808;12.482;2023-12-20T07:50:25;5.20;99.90
34646;DHT22;20857;47.808;12.482;2023-12-20T07:52:51;5.10;99.90
34646;DHT22;20857;47.808;12.482;2023-12-20T07:55:17;5.10;99.90
34646;DHT22;20857;47.808;12.482;2023-12-20T07:57:42;5.10;99.90
34646;DHT22;20857;47.808;12.482;2023-12-20T08:00:08;5.00;99.90
34646;DHT22;20857;47.808;12.482;2023-12-20T08:02:34;5.00;99.90
34646;DHT22;20857;47.808;12.482;2023-12-20T08:05:00;5.00;99.90
34646;DHT22;20857;47.808;12.482;2023-12-20T08:07:26;5.00;99.90
34646;DHT22;20857;47.808;12.482;2023-12-20T08:09:51;5.00;99.90
34646;DHT22;20857;47.808;12.482;2023-12-20T08:12:17;5.00;99.90
34646;DHT22;20857;47.808;12.482;2023-12-20T08:14:43;5.00;99.90
34646;DHT22;20857;47.808;12.482;2023-12-20T08:17:08;5.00;99.90
34646;DHT22;20857;47.808;12.482;2023-12-20T08:19:34;5.00;99.90
34646;DHT22;20857;47.808;12.482;2023-12-20T08:21:59;5.00;99.90
34646;DHT22;20857;47.808;12.482;2023-12-20T08:24:25;5.00;99.90
34646;DHT22;20857;47.808;12.482;2023-12-20T08:26:50;4.90;99.90
34646;DHT22;20857;47.808;12.482;2023-12-20T08:29:16;4.90;99.90
34646;DHT22;20857;47.808;12.482;2023-12-20T08:31:42;4.90;99.90
34646;DHT22;20857;47.808;12.482;2023-12-20T08:34:07;5.10;99.90
34646;DHT22;20857;47.808;12.482;2023-12-20T08:36:33;4.90;99.90
34646;DHT22;20857;47.808;12.482;2023-12-20T08:38:58;4.90;99.90
34646;DHT22;20857;47.808;12.482;2023-12-20T08:41:26;5.00;99.90
34646;DHT22;20857;47.808;12.482;2023-12-20T08:43:51;5.00;99.90
34646;DHT22;20857;47.808;12.482;2023-12-20T08:46:17;4.90;99.90
34646;DHT22;20857;47.808;12.482;2023-12-20T08:48:42;5.00;99.90
34646;DHT22;20857;47.808;12.482;2023-12-20T08:51:08;5.00;99.90
34646;DHT22;20857;47.808;12.482;2023-12-20T08:53:34;5.00;99.90
34646;DHT22;20857;47.808;12.482;2023-12-20T08:56:00;5.00;99.90
34646;DHT22;20857;47.808;12.482;2023-12-20T08:58:30;5.10;99.90
34646;DHT22;20857;47.808;12.482;2023-12-20T09:00:56;5.10;99.90
34646;DHT22;20857;47.808;12.482;2023-12-20T09:03:25;5.10;99.90
34646;DHT22;20857;47.808;12.482;2023-12-20T09:05:51;5.20;99.90
34646;DHT22;20857;47.808;12.482;2023-12-20T09:08:17;5.20;99.90
34646;DHT22;20857;47.808;12.482;2023-12-20T09:10:42;5.10;99.90
34646;DHT22;20857;47.808;12.482;2023-12-20T09:13:08;5.10;99.90
34646;DHT22;20857;47.808;12.482;2023-12-20T09:15:33;5.20;99.90
34646;DHT22;20857;47.808;12.482;2023-12-20T09:17:59;5.20;99.90
34646;DHT22;20857;47.808;12.482;2023-12-20T09:20:25;5.10;99.90
34646;DHT22;20857;47.808;12.482;2023-12-20T09:22:50;5.20;99.90
34646;DHT22;20857;47.808;12.482;2023-12-20T09:25:16;5.10;99.90
34646;DHT22;20857;47.808;12.482;2023-12-20T09:27:43;5.00;99.90
34646;DHT22;20857;47.808;12.482;2023-12-20T09:30:09;5.10;99.90
34646;DHT22;20857;47.808;12.482;2023-12-20T09:32:35;5.10;99.90
34646;DHT22;20857;47.808;12.482;2023-12-20T09:35:01;5.10;99.90
34646;DHT22;20857;47.808;12.482;2023-12-20T09:37:27;5.20;99.90
34646;DHT22;20857;47.808;12.482;2023-12-20T09:39:53;5.20;99.90
34646;DHT22;20857;47.808;12.482;2023-12-20T09:42:33;5.20;99.90
34646;DHT22;20857;47.808;12.482;2023-12-20T09:45:04;5.20;99.90
34646;DHT22;20857;47.808;12.482;2023-12-20T09:47:33;5.20;99.90
34646;DHT22;20857;47.808;12.482;2023-12-20T09:49:58;5.20;99.90
34646;DHT22;20857;47.808;12.482;2023-12-20T09:52:28;5.10;99.90
34646;DHT22;20857;47.808;12.482;2023-12-20T09:54:55;5.10;99.90
34646;DHT22;20857;47.808;12.482;2023-12-20T09:57:22;5.10;99.90
34646;DHT22;20857;47.808;12.482;2023-12-20T09:59:47;5.10;99.90
34646;DHT22;20857;47.808;12.482;2023-12-20T10:02:14;5.10;99.90
34646;DHT22;20857;47.808;12.482;2023-12-20T10:04:52;6.10;99.90
34646;DHT22;20857;47.808;12.482;2023-12-20T10:07:17;5.10;99.90
34646;DHT22;20857;47.808;12.482;2023-12-20T10:09:44;5.00;99.90
34646;DHT22;20857;47.808;12.482;2023-12-20T10:12:09;5.00;99.90
34646;DHT22;20857;47.808;12.482;2023-12-20T10:14:35;5.00;99.90
34646;DHT22;20857;47.808;12.482;2023-12-20T10:17:05;4.90;99.90
34646;DHT22;20857;47.808;12.482;2023-12-20T10:19:34;4.90;99.90
34646;DHT22;20857;47.808;12.482;2023-12-20T10:22:00;4.90;99.90
34646;DHT22;20857;47.808;12.482;2023-12-20T10:24:28;4.90;99.90
34646;DHT22;20857;47.808;12.482;2023-12-20T10:27:05;4.90;99.90
34646;DHT22;20857;47.808;12.482;2023-12-20T10:29:37;4.90;99.90
34646;DHT22;20857;47.808;12.482;2023-12-20T10:32:23;5.00;99.90
34646;DHT22;20857;47.808;12.482;2023-12-20T10:34:52;5.00;99.90
34646;DHT22;20857;47.808;12.482;2023-12-20T10:37:18;4.90;99.90
34646;DHT22;20857;47.808;12.482;2023-12-20T10:39:44;4.90;99.90
34646;DHT22;20857;47.808;12.482;2023-12-20T10:42:20;5.10;99.90
34646;DHT22;20857;47.808;12.482;2023-12-20T10:44:48;5.00;99.90
34646;DHT22;20857;47.808;12.482;2023-12-20T10:47:15;5.00;99.90
34646;DHT22;20857;47.808;12.482;2023-12-20T10:49:41;5.00;99.90
34646;DHT22;20857;47.808;12.482;2023-12-20T10:52:08;5.00;99.90
34646;DHT22;20857;47.808;12.482;2023-12-20T10:54:37;5.00;99.90
34646;DHT22;20857;47.808;12.482;2023-12-20T10:57:05;5.00;99.90
34646;DHT22;20857;47.808;12.482;2023-12-20T10:59:34;5.00;99.90
34646;DHT22;20857;47.808;12.482;2023-12-20T11:02:10;5.10;99.90
34646;DHT22;20857;47.808;12.482;2023-12-20T11:04:44;5.00;99.90
34646;DHT22;20857;47.808;12.482;2023-12-20T11:09:58;5.10;99.90
34646;DHT22;20857;47.808;12.482;2023-12-20T11:12:52;5.30;99.90
34646;DHT22;20857;47.808;12.482;2023-12-20T11:15:19;5.30;99.90
34646;DHT22;20857;47.808;12.482;2023-12-20T11:17:45;5.40;99.90
34646;DHT22;20857;47.808;12.482;2023-12-20T11:20:14;5.30;99.90
34646;DHT22;20857;47.808;12.482;2023-12-20T11:22:52;5.30;99.90
34646;DHT22;20857;47.808;12.482;2023-12-20T11:25:18;5.40;99.90
34646;DHT22;20857;47.808;12.482;2023-12-20T11:27:43;5.30;99.90
34646;DHT22;20857;47.808;12.482;2023-12-20T11:30:10;5.40;99.90
34646;DHT22;20857;47.808;12.482;2023-12-20T11:32:36;5.30;99.90
34646;DHT22;20857;47.808;12.482;2023-12-20T11:37:38;5.50;99.90
34646;DHT22;20857;47.808;12.482;2023-12-20T11:40:11;5.50;99.90
34646;DHT22;20857;47.808;12.482;2023-12-20T11:42:45;5.50;99.90
34646;DHT22;20857;47.808;12.482;2023-12-20T11:45:15;5.40;99.90
34646;DHT22;20857;47.808;12.482;2023-12-20T11:47:46;5.40;99.90
34646;DHT22;20857;47.808;12.482;2023-12-20T11:50:12;5.40;99.90
34646;DHT22;20857;47.808;12.482;2023-12-20T11:52:37;5.50;99.90
34646;DHT22;20857;47.808;12.482;2023-12-20T11:55:05;5.50;99.90
34646;DHT22;20857;47.808;12.482;2023-12-20T11:57:32;5.50;99.90
34646;DHT22;20857;47.808;12.482;2023-12-20T11:59:58;5.40;99.90
34646;DHT22;20857;47.808;12.482;2023-12-20T12:02:23;5.40;99.90
34646;DHT22;20857;47.808;12.482;2023-12-20T12:04:51;5.50;99.90
34646;DHT22;20857;47.808;12.482;2023-12-20T12:07:17;5.50;99.90
34646;DHT22;20857;47.808;12.482;2023-12-20T12:09:43;5.50;99.90
34646;DHT22;20857;47.808;12.482;2023-12-20T12:12:10;5.40;99.90
34646;DHT22;20857;47.808;12.482;2023-12-20T12:14:37;5.30;99.90
34646;DHT22;20857;47.808;12.482;2023-12-20T12:17:03;5.40;99.90
34646;DHT22;20857;47.808;12.482;2023-12-20T12:19:29;5.50;99.90
34646;DHT22;20857;47.808;12.482;2023-12-20T12:22:14;5.70;99.90
34646;DHT22;20857;47.808;12.482;2023-12-20T12:24:41;5.70;99.90
34646;DHT22;20857;47.808;12.482;2023-12-20T12:27:07;5.80;99.90
34646;DHT22;20857;47.808;12.482;2023-12-20T12:29:34;5.70;99.90
34646;DHT22;20857;47.808;12.482;2023-12-20T12:31:59;5.60;99.90
34646;DHT22;20857;47.808;12.482;2023-12-20T12:34:27;5.60;99.90
34646;DHT22;20857;47.808;12.482;2023-12-20T12:36:53;5.50;99.90
34646;DHT22;20857;47.808;12.482;2023-12-20T12:39:19;5.60;99.90
34646;DHT22;20857;47.808;12.482;2023-12-20T12:41:45;5.50;99.90
34646;DHT22;20857;47.808;12.482;2023-12-20T12:44:11;5.50;99.90
34646;DHT22;20857;47.808;12.482;2023-12-20T12:46:36;5.50;99.90
34646;DHT22;20857;47.808;12.482;2023-12-20T12:49:02;5.50;99.90
34646;DHT22;20857;47.808;12.482;2023-12-20T12:51:28;5.60;99.90
34646;DHT22;20857;47.808;12.482;2023-12-20T12:53:53;5.70;99.90
34646;DHT22;20857;47.808;12.482;2023-12-20T12:56:19;5.80;99.90
34646;DHT22;20857;47.808;12.482;2023-12-20T12:58:45;5.80;99.90
34646;DHT22;20857;47.808;12.482;2023-12-20T13:01:10;5.80;99.90
34646;DHT22;20857;47.808;12.482;2023-12-20T13:03:36;5.60;99.90
34646;DHT22;20857;47.808;12.482;2023-12-20T13:06:02;5.60;99.90
34646;DHT22;20857;47.808;12.482;2023-12-20T13:08:28;5.70;99.90
34646;DHT22;20857;47.808;12.482;2023-12-20T13:10:55;5.70;99.90
34646;DHT22;20857;47.808;12.482;2023-12-20T13:13:21;5.70;99.90
34646;DHT22;20857;47.808;12.482;2023-12-20T13:15:46;5.60;99.90
34646;DHT22;20857;47.808;12.482;2023-12-20T13:18:17;5.50;99.90
34646;DHT22;20857;47.808;12.482;2023-12-20T13:20:44;5.50;99.90
34646;DHT22;20857;47.808;12.482;2023-12-20T13:23:10;5.50;99.90
34646;DHT22;20857;47.808;12.482;2023-12-20T13:25:35;5.50;99.90
34646;DHT22;20857;47.808;12.482;2023-12-20T13:28:01;5.40;99.90
34646;DHT22;20857;47.808;12.482;2023-12-20T13:30:28;5.50;99.90
34646;DHT22;20857;47.808;12.482;2023-12-20T13:32:54;5.90;99.90
34646;DHT22;20857;47.808;12.482;2023-12-20T13:35:19;5.30;99.90
34646;DHT22;20857;47.808;12.482;2023-12-20T13:37:46;5.40;99.90
34646;DHT22;20857;47.808;12.482;2023-12-20T13:40:11;5.30;99.90
34646;DHT22;20857;47.808;12.482;2023-12-20T13:42:38;5.40;99.90
34646;DHT22;20857;47.808;12.482;2023-12-20T13:45:04;5.40;99.90
34646;DHT22;20857;47.808;12.482;2023-12-20T13:47:30;5.40;99.90
34646;DHT22;20857;47.808;12.482;2023-12-20T13:49:56;5.50;99.90
34646;DHT22;20857;47.808;12.482;2023-12-20T13:52:22;5.70;99.90
34646;DHT22;20857;47.808;12.482;2023-12-20T13:54:47;5.60;99.90
34646;DHT22;20857;47.808;12.482;2023-12-20T13:57:13;5.60;99.90
34646;DHT22;20857;47.808;12.482;2023-12-20T13:59:38;5.70;99.90
34646;DHT22;20857;47.808;12.482;2023-12-20T14:02:04;5.70;99.90
34646;DHT22;20857;47.808;12.482;2023-12-20T14:04:30;5.70;99.90
34646;DHT22;20857;47.808;12.482;2023-12-20T14:06:56;5.70;99.90
34646;DHT22;20857;47.808;12.482;2023-12-20T14:09:22;5.70;99.90
34646;DHT22;20857;47.808;12.482;2023-12-20T14:11:48;5.80;99.90
34646;DHT22;20857;47.808;12.482;2023-12-20T14:14:14;5.80;99.90
34646;DHT22;20857;47.808;12.482;2023-12-20T14:16:39;5.70;99.90
34646;DHT22;20857;47.808;12.482;2023-12-20T14:19:05;5.70;99.90
34646;DHT22;20857;47.808;12.482;2023-12-20T14:21:33;5.70;99.90
34646;DHT22;20857;47.808;12.482;2023-12-20T14:23:58;5.60;99.90
34646;DHT22;20857;47.808;12.482;2023-12-20T14:26:24;5.50;99.90
34646;DHT22;20857;47.808;12.482;2023-12-20T14:28:50;5.60;99.90
34646;DHT22;20857;47.808;12.482;2023-12-20T14:31:15;5.60;99.90
34646;DHT22;20857;47.808;12.482;2023-12-20T14:33:41;5.60;99.90
34646;DHT22;20857;47.808;12.482;2023-12-20T14:36:07;5.70;99.90
34646;DHT22;20857;47.808;12.482;2023-12-20T14:38:34;5.60;99.90
34646;DHT22;20857;47.808;12.482;2023-12-20T14:41:00;5.50;99.90
34646;DHT22;20857;47.808;12.482;2023-12-20T14:43:26;5.50;99.90
34646;DHT22;20857;47.808;12.482;2023-12-20T14:45:52;5.60;99.90
34646;DHT22;20857;47.808;12.482;2023-12-20T14:48:17;5.50;99.90
34646;DHT22;20857;47.808;12.482;2023-12-20T14:50:44;5.50;99.90
34646;DHT22;20857;47.808;12.482;2023-12-20T14:53:09;5.50;99.90
34646;DHT22;20857;47.808;12.482;2023-12-20T14:55:35;5.50;99.90
34646;DHT22;20857;47.808;12.482;2023-12-20T14:58:01;5.40;99.90
34646;DHT22;20857;47.808;12.482;2023-12-20T15:00:27;5.50;99.90
34646;DHT22;20857;47.808;12.482;2023-12-20T15:02:52;5.40;99.90
34646;DHT22;20857;47.808;12.482;2023-12-20T15:05:21;5.40;99.90
34646;DHT22;20857;47.808;12.482;2023-12-20T15:07:46;5.30;99.90
34646;DHT22;20857;47.808;12.482;2023-12-20T15:10:13;5.40;99.90
34646;DHT22;20857;47.808;12.482;2023-12-20T15:12:39;5.30;99.90
34646;DHT22;20857;47.808;12.482;2023-12-20T15:15:05;5.30;99.90
34646;DHT22;20857;47.808;12.482;2023-12-20T15:17:31;5.30;99.90
34646;DHT22;20857;47.808;12.482;2023-12-20T15:19:57;5.30;99.90
34646;DHT22;20857;47.808;12.482;2023-12-20T15:22:22;5.20;99.90
34646;DHT22;20857;47.808;12.482;2023-12-20T15:24:49;4.90;99.90
34646;DHT22;20857;47.808;12.482;2023-12-20T15:27:16;4.50;99.90
34646;DHT22;20857;47.808;12.482;2023-12-20T15:29:43;4.40;99.90